createdAt,value
2022-08-10T00:01:37.668Z,102340.00
2022-08-10T00:04:05.180Z,102342.09
2022-08-10T00:06:32.070Z,102333.81
2022-08-10T00:08:59.004Z,102327.25
2022-08-10T00:11:25.863Z,102331.28
2022-08-10T00:13:52.963Z,102329.84
2022-08-10T00:16:21.151Z,102327.56
2022-08-10T00:18:47.918Z,102317.06
2022-08-10T00:21:14.775Z,102325.19
2022-08-10T00:23:41.573Z,102332.34
2022-08-10T00:26:08.419Z,102322.19
2022-08-10T00:28:35.231Z,102326.06
2022-08-10T00:31:02.176Z,102323.25
2022-08-10T00:33:30.354Z,102324.63
2022-08-10T00:35:57.151Z,102326.94
2022-08-10T00:38:24.222Z,102327.97
2022-08-10T00:40:51.008Z,102318.75
2022-08-10T00:43:23.960Z,102317.59
2022-08-10T00:45:59.758Z,102326.25
2022-08-10T00:48:28.993Z,102320.59
2022-08-10T00:50:58.546Z,102322.66
2022-08-10T00:53:26.211Z,102314.34
2022-08-10T00:57:09.128Z,102309.75
2022-08-10T00:58:40.969Z,102305.81
2022-08-10T01:01:11.028Z,102307.81
2022-08-10T01:04:58.949Z,102303.84
2022-08-10T01:06:53.450Z,102303.91
2022-08-10T01:09:29.543Z,102302.44
2022-08-10T01:12:38.065Z,102302.78
2022-08-10T01:14:55.937Z,102305.13
2022-08-10T01:17:50.814Z,102304.97
2022-08-10T01:20:30.064Z,102304.31
2022-08-10T01:23:27.586Z,102303.97
2022-08-10T01:26:31.404Z,102295.88
2022-08-10T01:29:12.849Z,102288.78
2022-08-10T01:31:44.537Z,102290.25
2022-08-10T01:34:18.176Z,102287.75
2022-08-10T01:36:50.021Z,102286.97
2022-08-10T01:39:23.268Z,102289.47
2022-08-10T01:41:55.527Z,102278.69
2022-08-10T01:44:29.603Z,102278.56
2022-08-10T01:47:23.416Z,102276.91
2022-08-10T01:49:56.585Z,102276.94
2022-08-10T01:52:26.594Z,102280.25
2022-08-10T01:54:56.071Z,102278.25
2022-08-10T01:57:25.922Z,102288.03
2022-08-10T01:59:58.729Z,102286.53
2022-08-10T02:02:33.881Z,102278.75
2022-08-10T02:05:03.543Z,102281.09
2022-08-10T02:07:32.518Z,102276.13
2022-08-10T02:10:04.493Z,102283.56
2022-08-10T02:12:34.398Z,102281.53
2022-08-10T02:15:04.104Z,102277.25
2022-08-10T02:18:00.500Z,102277.94
2022-08-10T02:20:25.055Z,102276.28
2022-08-10T02:22:55.489Z,102273.63
2022-08-10T02:25:39.684Z,102275.31
2022-08-10T02:28:11.734Z,102279.09
2022-08-10T02:30:57.638Z,102277.47
2022-08-10T02:33:29.523Z,102281.06
2022-08-10T02:36:00.519Z,102281.91
2022-08-10T02:38:58.250Z,102280.19
2022-08-10T02:45:02.552Z,102284.03
2022-08-10T02:45:26.892Z,102285.81
2022-08-10T02:47:13.508Z,102288.16
2022-08-10T02:49:48.437Z,102286.53
2022-08-10T02:52:21.024Z,102286.38
2022-08-10T02:54:53.650Z,102286.38
2022-08-10T02:57:25.317Z,102286.38
2022-08-10T02:59:55.846Z,102274.81
2022-08-10T03:02:27.957Z,102273.00
2022-08-10T03:05:03.227Z,102275.50
2022-08-10T03:07:43.302Z,102270.03
2022-08-10T03:10:16.098Z,102272.53
2022-08-10T03:12:44.301Z,102266.41
2022-08-10T03:15:15.599Z,102267.91
2022-08-10T03:17:58.357Z,102264.09
2022-08-10T03:20:37.956Z,102264.28
2022-08-10T03:23:09.662Z,102268.72
2022-08-10T03:25:37.669Z,102265.75
2022-08-10T03:28:05.746Z,102265.59
2022-08-10T03:30:34.307Z,102264.09
2022-08-10T03:33:04.105Z,102257.47
2022-08-10T03:35:32.825Z,102261.63
2022-08-10T03:38:00.382Z,102260.63
2022-08-10T03:40:32.176Z,102259.81
2022-08-10T03:43:15.768Z,102255.00
2022-08-10T03:45:55.057Z,102251.53
2022-08-10T03:48:24.644Z,102250.22
2022-08-10T03:51:02.106Z,102243.94
2022-08-10T03:54:06.116Z,102252.38
2022-08-10T03:56:28.464Z,102246.59
2022-08-10T03:58:58.384Z,102249.06
2022-08-10T04:02:44.856Z,102246.91
2022-08-10T04:04:14.621Z,102245.94
2022-08-10T04:06:46.637Z,102245.28
2022-08-10T04:09:18.179Z,102249.06
2022-08-10T04:11:45.010Z,102249.06
2022-08-10T04:14:35.637Z,102251.41
2022-08-10T04:16:58.602Z,102250.91
2022-08-10T04:19:27.340Z,102251.88
2022-08-10T04:22:03.279Z,102253.38
2022-08-10T04:24:34.211Z,102243.94
2022-08-10T04:27:01.751Z,102254.53
2022-08-10T04:29:29.385Z,102249.06
2022-08-10T04:31:56.336Z,102249.25
2022-08-10T04:34:27.021Z,102237.34
2022-08-10T04:36:59.917Z,102253.88
2022-08-10T04:39:27.094Z,102248.59
2022-08-10T04:41:54.737Z,102248.91
2022-08-10T04:44:21.527Z,102253.38
2022-08-10T04:46:57.810Z,102253.19
2022-08-10T04:49:55.251Z,102249.72
2022-08-10T04:52:14.743Z,102247.56
2022-08-10T04:54:41.744Z,102256.88
2022-08-10T04:57:09.236Z,102247.25
2022-08-10T04:59:36.130Z,102247.41
2022-08-10T05:02:21.509Z,102249.91
2022-08-10T05:04:50.029Z,102248.09
2022-08-10T05:07:18.631Z,102245.25
2022-08-10T05:10:01.050Z,102243.78
2022-08-10T05:12:32.693Z,102253.03
2022-08-10T05:15:03.057Z,102244.91
2022-08-10T05:17:29.977Z,102250.19
2022-08-10T05:20:03.170Z,102253.19
2022-08-10T05:22:36.040Z,102254.78
2022-08-10T05:25:04.339Z,102258.78
2022-08-10T05:27:31.204Z,102250.03
2022-08-10T05:30:01.504Z,102251.66
2022-08-10T05:32:29.637Z,102260.22
2022-08-10T05:34:56.395Z,102256.75
2022-08-10T05:38:12.056Z,102260.47
2022-08-10T05:40:12.881Z,102258.69
2022-08-10T05:42:39.916Z,102255.22
2022-08-10T05:45:11.233Z,102254.56
2022-08-10T05:48:58.222Z,102267.56
2022-08-10T05:50:27.472Z,102271.84
2022-08-10T05:52:54.847Z,102279.31
2022-08-10T05:55:23.726Z,102277.81
2022-08-10T05:57:51.616Z,102286.84
2022-08-10T06:00:36.789Z,102285.81
2022-08-10T06:03:08.640Z,102292.31
2022-08-10T06:05:39.513Z,102296.03
2022-08-10T06:08:13.889Z,102294.72
2022-08-10T06:12:23.922Z,102294.22
2022-08-10T06:13:59.676Z,102297.63
2022-08-10T06:16:40.773Z,102293.69
2022-08-10T06:19:08.172Z,102304.31
2022-08-10T06:21:36.449Z,102301.22
2022-08-10T06:24:05.451Z,102301.09
2022-08-10T06:26:33.688Z,102295.44
2022-08-10T06:29:09.985Z,102294.41
2022-08-10T06:31:48.790Z,102306.03
2022-08-10T06:34:20.669Z,102299.28
2022-08-10T06:36:48.615Z,102300.06
2022-08-10T06:42:15.802Z,102301.00
2022-08-10T06:44:55.828Z,102307.53
2022-08-10T06:47:25.759Z,102312.53
2022-08-10T06:49:59.998Z,102313.50
2022-08-10T06:52:30.701Z,102316.66
2022-08-10T06:54:59.435Z,102316.00
2022-08-10T06:57:32.598Z,102316.03
2022-08-10T07:00:02.855Z,102317.81
2022-08-10T07:02:41.316Z,102324.94
2022-08-10T07:05:14.058Z,102327.91
2022-08-10T07:07:43.862Z,102331.94
2022-08-10T07:10:12.161Z,102325.47
2022-08-10T07:12:41.198Z,102327.28
2022-08-10T07:15:12.335Z,102313.78
2022-08-10T07:17:40.733Z,102312.91
2022-08-10T07:20:09.926Z,102319.84
2022-08-10T07:23:04.800Z,102307.09
2022-08-10T07:25:26.291Z,102315.03
2022-08-10T07:27:59.131Z,102307.41
2022-08-10T07:30:29.640Z,102310.16
2022-08-10T07:32:56.925Z,102302.19
2022-08-10T07:35:26.636Z,102310.13
2022-08-10T07:37:55.143Z,102304.44
2022-08-10T07:40:23.494Z,102311.91
2022-08-10T07:42:57.849Z,102315.09
2022-08-10T07:45:28.317Z,102309.31
2022-08-10T07:48:03.721Z,102309.81
2022-08-10T07:50:36.307Z,102306.94
2022-08-10T07:53:04.644Z,102311.50
2022-08-10T07:56:05.055Z,102315.16
2022-08-10T07:58:25.575Z,102320.22
2022-08-10T08:00:54.196Z,102323.72
2022-08-10T08:03:25.081Z,102316.41
2022-08-10T08:06:03.181Z,102329.81
2022-08-10T08:08:40.488Z,102330.94
2022-08-10T08:11:08.890Z,102329.75
2022-08-10T08:13:39.363Z,102339.59
2022-08-10T08:16:19.202Z,102324.16
2022-08-10T08:19:16.337Z,102319.66
2022-08-10T08:24:04.650Z,102320.16
2022-08-10T08:24:33.511Z,102308.06
2022-08-10T08:27:02.545Z,102318.84
2022-08-10T08:29:34.105Z,102309.22
2022-08-10T08:32:03.463Z,102312.81
2022-08-10T08:34:32.234Z,102311.75
2022-08-10T08:37:01.030Z,102307.03
2022-08-10T08:39:28.491Z,102310.81
2022-08-10T08:42:09.154Z,102306.00
2022-08-10T08:44:55.827Z,102304.53
2022-08-10T08:48:04.268Z,102308.63
2022-08-10T08:50:35.441Z,102305.00
2022-08-10T08:53:22.339Z,102309.22
2022-08-10T08:56:05.809Z,102295.81
2022-08-10T08:58:45.058Z,102292.41
2022-08-10T09:01:38.277Z,102296.66
2022-08-10T09:04:23.933Z,102294.72
2022-08-10T09:07:59.196Z,102290.31
2022-08-10T09:10:12.901Z,102284.25
2022-08-10T09:12:53.423Z,102278.00
2022-08-10T09:15:39.649Z,102281.34
2022-08-10T09:18:18.000Z,102281.47
2022-08-10T09:20:51.244Z,102280.72
2022-08-10T09:24:01.855Z,102279.16
2022-08-10T09:26:21.387Z,102286.25
2022-08-10T09:28:52.591Z,102270.22
2022-08-10T09:33:05.321Z,102272.97
2022-08-10T09:36:20.906Z,102268.72
2022-08-10T09:37:58.664Z,102270.75
2022-08-10T09:40:59.862Z,102266.41
2022-08-10T09:43:27.759Z,102267.72
2022-08-10T09:46:02.769Z,102264.59
2022-08-10T09:48:36.731Z,102259.69
2022-08-10T09:54:04.675Z,102261.66
2022-08-10T09:56:40.985Z,102260.13
2022-08-10T09:59:29.372Z,102261.19
2022-08-10T10:02:15.118Z,102259.91
2022-08-10T10:04:50.127Z,102256.53
2022-08-10T10:10:10.908Z,102255.72
2022-08-10T10:12:51.146Z,102245.09
2022-08-10T10:15:31.476Z,102244.50
2022-08-10T10:18:14.212Z,102239.88
2022-08-10T10:20:49.821Z,102242.84
2022-08-10T10:28:00.380Z,102235.66
2022-08-10T10:30:37.025Z,102238.69
2022-08-10T10:33:14.598Z,102233.31
2022-08-10T10:35:47.697Z,102236.00
2022-08-10T10:38:16.851Z,102236.34
2022-08-10T10:40:49.605Z,102233.94
2022-08-10T10:43:36.201Z,102228.97
2022-08-10T10:46:11.971Z,102219.63
2022-08-10T10:48:48.181Z,102226.06
2022-08-10T10:51:21.059Z,102221.53
2022-08-10T10:53:56.782Z,102218.63
2022-08-10T10:56:31.032Z,102214.00
2022-08-10T10:59:56.920Z,102201.94
2022-08-10T11:02:20.711Z,102207.72
2022-08-10T11:05:02.284Z,102208.91
2022-08-10T11:07:36.038Z,102203.19
2022-08-10T11:10:32.977Z,102195.75
2022-08-10T11:14:23.266Z,102196.88
2022-08-10T11:16:03.271Z,102182.38
2022-08-10T11:18:47.108Z,102187.56
2022-08-10T11:21:21.774Z,102183.06
2022-08-10T11:24:46.922Z,102190.38
2022-08-10T11:26:49.817Z,102180.78
2022-08-10T11:29:29.568Z,102179.53
2022-08-10T11:32:08.553Z,102184.31
2022-08-10T11:35:10.241Z,102179.22
2022-08-10T11:38:29.620Z,102178.41
2022-08-10T11:40:39.211Z,102183.03
2022-08-10T11:43:13.327Z,102179.72
2022-08-10T11:45:52.303Z,102174.25
2022-08-10T11:48:53.462Z,102176.78
2022-08-10T11:51:23.330Z,102169.63
2022-08-10T11:53:54.300Z,102169.19
2022-08-10T11:56:27.858Z,102175.22
2022-08-10T11:59:16.653Z,102167.25
2022-08-10T12:01:47.102Z,102164.41
2022-08-10T12:04:18.690Z,102165.28
2022-08-10T12:06:56.291Z,102154.00
2022-08-10T12:10:11.450Z,102149.50
2022-08-10T12:12:13.368Z,102149.03
2022-08-10T12:14:46.473Z,102155.72
2022-08-10T12:17:15.945Z,102147.84
2022-08-10T12:20:02.548Z,102142.75
2022-08-10T12:22:34.280Z,102147.81
2022-08-10T12:25:05.190Z,102147.63
2022-08-10T12:27:38.705Z,102135.22
2022-08-10T12:30:08.948Z,102137.31
2022-08-10T12:32:43.650Z,102137.94
2022-08-10T12:35:23.719Z,102123.34
2022-08-10T12:38:03.070Z,102130.66
2022-08-10T12:40:37.290Z,102133.13
2022-08-10T12:44:06.687Z,102130.22
2022-08-10T12:46:16.421Z,102131.38
2022-08-10T12:48:54.468Z,102121.66
2022-08-10T12:51:25.362Z,102115.31
2022-08-10T12:53:57.732Z,102119.03
2022-08-10T12:56:27.723Z,102115.72
2022-08-10T12:59:00.333Z,102115.00
2022-08-10T13:02:06.295Z,102109.56
2022-08-10T13:04:24.711Z,102122.59
2022-08-10T13:06:53.482Z,102109.84
2022-08-10T13:09:23.367Z,102112.03
2022-08-10T13:12:37.015Z,102094.63
2022-08-10T13:14:48.592Z,102090.28
2022-08-10T13:17:22.711Z,102094.44
2022-08-10T13:19:55.285Z,102091.16
2022-08-10T13:22:30.290Z,102089.31
2022-08-10T13:25:01.433Z,102089.72
2022-08-10T13:28:00.763Z,102089.34
2022-08-10T13:30:33.559Z,102079.34
2022-08-10T13:33:04.871Z,102078.84
2022-08-10T13:35:33.413Z,102079.41
2022-08-10T13:38:03.529Z,102077.22
2022-08-10T13:40:32.130Z,102073.63
2022-08-10T13:43:01.855Z,102067.75
2022-08-10T13:45:30.432Z,102056.50
2022-08-10T13:48:09.407Z,102057.91
2022-08-10T13:50:38.910Z,102056.66
2022-08-10T13:53:14.958Z,102051.03
2022-08-10T13:55:46.025Z,102056.50
2022-08-10T13:58:28.028Z,102045.44
2022-08-10T14:00:56.483Z,102046.31
2022-08-10T14:03:24.502Z,102034.97
2022-08-10T14:05:53.176Z,102035.78
2022-08-10T14:08:25.161Z,102031.41
2022-08-10T14:11:09.630Z,102035.03
2022-08-10T14:13:44.273Z,102027.56
2022-08-10T14:16:12.550Z,102031.03
2022-08-10T14:18:42.282Z,102030.91
2022-08-10T14:21:09.636Z,102031.53
2022-08-10T14:23:42.519Z,102025.25
2022-08-10T14:26:20.674Z,102028.09
2022-08-10T14:28:52.625Z,102021.63
2022-08-10T14:31:22.888Z,102015.75
2022-08-10T14:33:55.331Z,102022.53
2022-08-10T14:36:31.847Z,102012.06
2022-08-10T14:39:02.494Z,102020.00
2022-08-10T14:42:01.524Z,102013.31
2022-08-10T14:44:21.472Z,102013.91
2022-08-10T14:46:53.736Z,102013.34
2022-08-10T14:49:26.555Z,102003.25
2022-08-10T14:52:00.824Z,102009.44
2022-08-10T14:54:32.444Z,102018.66
2022-08-10T14:57:10.906Z,102003.41
2022-08-10T15:00:21.016Z,102004.22
2022-08-10T15:02:39.038Z,102001.97
2022-08-10T15:05:10.150Z,101994.31
2022-08-10T15:07:38.733Z,102000.66
2022-08-10T15:10:09.626Z,102003.50
2022-08-10T15:12:38.801Z,101987.28
2022-08-10T15:15:10.199Z,101998.81
2022-08-10T15:17:42.010Z,101989.63
2022-08-10T15:20:20.773Z,101992.63
2022-08-10T15:22:50.087Z,101980.28
2022-08-10T15:25:24.991Z,101985.13
2022-08-10T15:27:57.516Z,101987.47
2022-08-10T15:30:32.414Z,101970.28
2022-08-10T15:34:03.463Z,101969.44
2022-08-10T15:37:02.420Z,101974.16
2022-08-10T15:40:21.148Z,101965.44
2022-08-10T15:42:34.329Z,101969.47
2022-08-10T15:45:01.285Z,101966.41
2022-08-10T15:47:45.118Z,101956.84
2022-08-10T15:50:19.741Z,101964.97
2022-08-10T15:53:00.013Z,101956.16
2022-08-10T15:55:42.820Z,101960.09
2022-08-10T15:58:18.793Z,101962.78
2022-08-10T16:00:53.649Z,101955.88
2022-08-10T16:03:24.713Z,101965.59
2022-08-10T16:06:01.859Z,101969.81
2022-08-10T16:08:37.609Z,101965.34
2022-08-10T16:11:27.947Z,101960.47
2022-08-10T16:14:11.973Z,101952.00
2022-08-10T16:16:39.922Z,101950.00
2022-08-10T16:19:22.229Z,101958.84
2022-08-10T16:21:56.000Z,101942.16
2022-08-10T16:24:26.369Z,101933.53
2022-08-10T16:26:54.578Z,101935.16
2022-08-10T16:29:25.872Z,101932.19
2022-08-10T16:31:55.655Z,101934.53
2022-08-10T16:34:23.731Z,101924.22
2022-08-10T16:36:54.064Z,101938.88
2022-08-10T16:39:58.837Z,101931.00
2022-08-10T16:42:17.418Z,101927.13
2022-08-10T16:44:53.438Z,101924.47
2022-08-10T16:47:27.369Z,101924.75
2022-08-10T16:49:57.756Z,101937.34
2022-08-10T16:52:27.292Z,101932.13
2022-08-10T16:55:01.063Z,101927.78
2022-08-10T16:57:47.044Z,101923.25
2022-08-10T17:00:20.187Z,101938.53
2022-08-10T17:02:51.269Z,101924.09
2022-08-10T17:06:03.421Z,101928.94
2022-08-10T17:08:10.444Z,101926.16
2022-08-10T17:10:38.271Z,101925.28
2022-08-10T17:13:07.370Z,101924.94
2022-08-10T17:15:38.125Z,101918.31
2022-08-10T17:18:05.273Z,101925.63
2022-08-10T17:20:38.261Z,101914.69
2022-08-10T17:23:06.670Z,101919.13
2022-08-10T17:25:48.468Z,101916.25
2022-08-10T17:28:33.072Z,101915.66
2022-08-10T17:31:53.356Z,101921.72
2022-08-10T17:34:01.505Z,101913.47
2022-08-10T17:36:32.716Z,101914.47
2022-08-10T17:39:00.827Z,101915.97
2022-08-10T17:41:31.479Z,101921.13
2022-08-10T17:44:02.468Z,101913.56
2022-08-10T17:46:34.246Z,101914.25
2022-08-10T17:49:06.281Z,101911.31
2022-08-10T17:51:34.381Z,101913.88
2022-08-10T17:54:04.589Z,101913.41
2022-08-10T17:56:33.604Z,101911.06
2022-08-10T17:59:02.576Z,101912.56
2022-08-10T18:01:40.684Z,101907.44
2022-08-10T18:04:21.697Z,101908.41
2022-08-10T18:06:53.579Z,101912.44
2022-08-10T18:09:28.037Z,101913.50
2022-08-10T18:12:00.809Z,101909.84
2022-08-10T18:14:31.624Z,101912.44
2022-08-10T18:17:00.216Z,101918.31
2022-08-10T18:19:30.142Z,101905.66
2022-08-10T18:21:59.002Z,101913.13
2022-08-10T18:24:28.733Z,101917.38
2022-08-10T18:26:56.869Z,101914.22
2022-08-10T18:29:30.354Z,101925.34
2022-08-10T18:31:59.979Z,101922.63
2022-08-10T18:34:29.694Z,101916.94
2022-08-10T18:36:57.319Z,101917.94
2022-08-10T18:39:27.931Z,101918.72
2022-08-10T18:42:00.789Z,101915.56
2022-08-10T18:44:36.442Z,101916.41
2022-08-10T18:47:10.025Z,101912.56
2022-08-10T18:49:53.473Z,101914.25
2022-08-10T18:52:23.235Z,101914.38
2022-08-10T18:54:53.748Z,101909.94
2022-08-10T18:57:33.165Z,101915.78
2022-08-10T19:00:10.231Z,101916.25
2022-08-10T19:03:11.643Z,101929.44
2022-08-10T19:06:02.374Z,101924.56
2022-08-10T19:08:48.737Z,101922.97
2022-08-10T19:11:24.258Z,101915.28
2022-08-10T19:14:00.455Z,101914.97
2022-08-10T19:16:40.490Z,101921.13
2022-08-10T19:19:22.886Z,101923.19
2022-08-10T19:22:02.622Z,101917.91
2022-08-10T19:24:41.752Z,101917.91
2022-08-10T19:27:14.463Z,101931.78
2022-08-10T19:30:10.182Z,101928.94
2022-08-10T19:32:51.214Z,101936.28
2022-08-10T19:35:27.750Z,101928.88
2022-08-10T19:38:16.296Z,101935.41
2022-08-10T19:40:55.782Z,101937.81
2022-08-10T19:44:00.735Z,101929.25
2022-08-10T19:46:28.461Z,101934.97
2022-08-10T19:49:02.561Z,101940.25
2022-08-10T19:51:39.407Z,101937.00
2022-08-10T19:54:14.217Z,101936.16
2022-08-10T19:56:55.737Z,101939.38
2022-08-10T20:00:15.166Z,101938.88
2022-08-10T20:02:25.248Z,101935.13
2022-08-10T20:04:59.701Z,101929.72
2022-08-10T20:07:34.411Z,101946.00
2022-08-10T20:10:13.572Z,101938.97
2022-08-10T20:12:47.129Z,101950.34
2022-08-10T20:15:20.628Z,101939.75
2022-08-10T20:17:56.295Z,101946.19
2022-08-10T20:20:31.360Z,101938.81
2022-08-10T20:23:09.561Z,101939.13
2022-08-10T20:25:40.266Z,101939.09
2022-08-10T20:28:16.656Z,101931.28
2022-08-10T20:30:48.031Z,101934.00
2022-08-10T20:33:21.827Z,101927.38
2022-08-10T20:35:53.260Z,101940.34
2022-08-10T20:38:27.216Z,101941.44
2022-08-10T20:41:08.459Z,101936.94
2022-08-10T20:43:45.665Z,101938.03
2022-08-10T20:46:21.173Z,101929.00
2022-08-10T20:48:56.517Z,101936.25
2022-08-10T20:51:58.848Z,101931.38
2022-08-10T20:54:18.642Z,101940.25
2022-08-10T20:57:01.549Z,101937.00
2022-08-10T21:00:04.062Z,101941.75
2022-08-10T21:02:49.020Z,101940.00
2022-08-10T21:05:20.800Z,101929.38
2022-08-10T21:08:01.710Z,101936.16
2022-08-10T21:10:45.918Z,101928.75
2022-08-10T21:13:34.167Z,101931.50
2022-08-10T21:16:06.032Z,101925.81
2022-08-10T21:18:54.332Z,101927.41
2022-08-10T21:21:42.790Z,101932.09
2022-08-10T21:24:16.083Z,101925.97
2022-08-10T21:26:59.453Z,101928.53
2022-08-10T21:29:43.455Z,101930.13
2022-08-10T21:32:39.083Z,101928.94
2022-08-10T21:35:20.104Z,101932.88
2022-08-10T21:38:12.927Z,101927.06
2022-08-10T21:41:18.053Z,101931.81
2022-08-10T21:44:13.980Z,101926.69
2022-08-10T21:47:10.797Z,101925.31
2022-08-10T21:50:07.287Z,101927.28
2022-08-10T21:53:00.944Z,101932.03
2022-08-10T21:56:02.010Z,101914.09
2022-08-10T21:58:54.565Z,101918.91
2022-08-10T22:01:53.562Z,101921.56
2022-08-10T22:04:45.489Z,101921.75
2022-08-10T22:07:36.521Z,101910.53
2022-08-10T22:10:25.580Z,101910.69
2022-08-10T22:13:12.694Z,101917.03
2022-08-10T22:16:09.925Z,101911.31
2022-08-10T22:19:02.571Z,101912.19
2022-08-10T22:22:04.412Z,101915.41
2022-08-10T22:25:04.905Z,101912.75
2022-08-10T22:28:02.299Z,101909.75
2022-08-10T22:31:22.903Z,101907.16
2022-08-10T22:34:10.433Z,101897.72
2022-08-10T22:37:18.395Z,101907.78
2022-08-10T22:40:15.219Z,101904.78
2022-08-10T22:43:10.879Z,101901.00
2022-08-10T22:46:05.665Z,101899.66
2022-08-10T22:48:59.578Z,101896.00
2022-08-10T22:51:33.887Z,101894.25
2022-08-10T22:54:30.935Z,101897.53
2022-08-10T22:57:18.775Z,101891.41
2022-08-10T22:59:46.121Z,101895.28
2022-08-10T23:02:22.545Z,101892.09
2022-08-10T23:04:53.400Z,101891.91
2022-08-10T23:07:23.784Z,101892.31
2022-08-10T23:10:01.215Z,101886.63
2022-08-10T23:12:34.055Z,101888.56
2022-08-10T23:15:20.918Z,101888.13
2022-08-10T23:18:14.430Z,101885.03
2022-08-10T23:20:44.304Z,101888.53
2022-08-10T23:23:23.827Z,101880.25
2022-08-10T23:25:56.435Z,101887.38
2022-08-10T23:28:39.343Z,101884.56
2022-08-10T23:31:14.916Z,101884.38
2022-08-10T23:33:42.861Z,101887.59
2022-08-10T23:36:34.142Z,101880.13
2022-08-10T23:39:26.163Z,101883.94
2022-08-10T23:42:03.034Z,101884.53
2022-08-10T23:44:37.224Z,101886.22
2022-08-10T23:47:05.560Z,101890.13
2022-08-10T23:49:35.078Z,101885.19
2022-08-10T23:52:10.127Z,101895.06
2022-08-10T23:54:43.659Z,101893.41
2022-08-10T23:57:16.300Z,101882.72
2022-08-10T23:59:48.956Z,101878.19
